sensor_id;sensor_type;location;lat;lon;timestamp;P1;durP1;ratioP1;P2;durP2;ratioP2
51216;SDS011;37283;49.760;8.648;2023-02-01T00:00:26;4.90;;;3.05;;
51216;SDS011;37283;49.760;8.648;2023-02-01T00:02:52;6.55;;;3.25;;
51216;SDS011;37283;49.760;8.648;2023-02-01T00:05:19;6.20;;;3.47;;
51216;SDS011;37283;49.760;8.648;2023-02-01T00:07:48;6.53;;;4.20;;
51216;SDS011;37283;49.760;8.648;2023-02-01T00:10:15;5.93;;;3.70;;
51216;SDS011;37283;49.760;8.648;2023-02-01T00:12:42;7.13;;;3.65;;
51216;SDS011;37283;49.760;8.648;2023-02-01T00:15:08;6.75;;;3.80;;
51216;SDS011;37283;49.760;8.648;2023-02-01T00:17:35;7.65;;;3.63;;
51216;SDS011;37283;49.760;8.648;2023-02-01T00:20:02;6.35;;;3.85;;
51216;SDS011;37283;49.760;8.648;2023-02-01T00:22:29;6.65;;;4.00;;
51216;SDS011;37283;49.760;8.648;2023-02-01T00:24:56;6.88;;;4.20;;
51216;SDS011;37283;49.760;8.648;2023-02-01T00:27:22;8.10;;;4.15;;
51216;SDS011;37283;49.760;8.648;2023-02-01T00:29:48;8.77;;;4.68;;
51216;SDS011;37283;49.760;8.648;2023-02-01T00:32:15;8.25;;;4.30;;
51216;SDS011;37283;49.760;8.648;2023-02-01T00:34:42;7.82;;;5.13;;
51216;SDS011;37283;49.760;8.648;2023-02-01T00:37:08;7.22;;;4.13;;
51216;SDS011;37283;49.760;8.648;2023-02-01T00:39:34;9.75;;;4.40;;
51216;SDS011;37283;49.760;8.648;2023-02-01T00:42:01;6.72;;;4.10;;
51216;SDS011;37283;49.760;8.648;2023-02-01T00:44:28;8.50;;;4.00;;
51216;SDS011;37283;49.760;8.648;2023-02-01T00:46:59;6.55;;;4.10;;
51216;SDS011;37283;49.760;8.648;2023-02-01T00:49:26;6.65;;;3.97;;
51216;SDS011;37283;49.760;8.648;2023-02-01T00:51:53;6.70;;;4.35;;
51216;SDS011;37283;49.760;8.648;2023-02-01T00:54:19;5.93;;;3.97;;
51216;SDS011;37283;49.760;8.648;2023-02-01T00:56:46;7.00;;;4.28;;
51216;SDS011;37283;49.760;8.648;2023-02-01T00:59:12;5.95;;;4.25;;
51216;SDS011;37283;49.760;8.648;2023-02-01T01:01:39;6.88;;;4.25;;
51216;SDS011;37283;49.760;8.648;2023-02-01T01:04:06;8.63;;;4.10;;
51216;SDS011;37283;49.760;8.648;2023-02-01T01:06:33;10.15;;;4.00;;
51216;SDS011;37283;49.760;8.648;2023-02-01T01:09:01;6.63;;;3.95;;
51216;SDS011;37283;49.760;8.648;2023-02-01T01:13:56;8.90;;;4.35;;
51216;SDS011;37283;49.760;8.648;2023-02-01T01:16:25;4.68;;;3.60;;
51216;SDS011;37283;49.760;8.648;2023-02-01T01:21:21;7.35;;;4.22;;
51216;SDS011;37283;49.760;8.648;2023-02-01T01:23:47;6.13;;;4.00;;
51216;SDS011;37283;49.760;8.648;2023-02-01T01:26:18;6.68;;;4.22;;
51216;SDS011;37283;49.760;8.648;2023-02-01T01:28:46;9.85;;;4.20;;
51216;SDS011;37283;49.760;8.648;2023-02-01T01:31:14;6.85;;;4.15;;
51216;SDS011;37283;49.760;8.648;2023-02-01T01:33:42;8.77;;;4.20;;
51216;SDS011;37283;49.760;8.648;2023-02-01T01:36:10;7.00;;;4.15;;
51216;SDS011;37283;49.760;8.648;2023-02-01T01:38:38;7.70;;;4.57;;
51216;SDS011;37283;49.760;8.648;2023-02-01T01:41:06;7.95;;;4.22;;
51216;SDS011;37283;49.760;8.648;2023-02-01T01:46:29;10.43;;;4.55;;
51216;SDS011;37283;49.760;8.648;2023-02-01T01:51:59;7.13;;;4.38;;
51216;SDS011;37283;49.760;8.648;2023-02-01T01:57:25;9.63;;;5.00;;
51216;SDS011;37283;49.760;8.648;2023-02-01T01:59:56;8.15;;;4.60;;
51216;SDS011;37283;49.760;8.648;2023-02-01T02:02:26;8.90;;;5.10;;
51216;SDS011;37283;49.760;8.648;2023-02-01T02:04:53;9.93;;;4.90;;
51216;SDS011;37283;49.760;8.648;2023-02-01T02:07:21;7.88;;;4.50;;
51216;SDS011;37283;49.760;8.648;2023-02-01T02:09:50;7.07;;;4.10;;
51216;SDS011;37283;49.760;8.648;2023-02-01T02:12:26;7.10;;;4.32;;
51216;SDS011;37283;49.760;8.648;2023-02-01T02:14:53;6.15;;;4.10;;
51216;SDS011;37283;49.760;8.648;2023-02-01T02:17:30;6.35;;;4.10;;
51216;SDS011;37283;49.760;8.648;2023-02-01T02:23:10;6.15;;;3.97;;
51216;SDS011;37283;49.760;8.648;2023-02-01T02:25:53;9.48;;;4.78;;
51216;SDS011;37283;49.760;8.648;2023-02-01T02:31:42;6.82;;;4.53;;
51216;SDS011;37283;49.760;8.648;2023-02-01T02:34:34;10.30;;;3.88;;
51216;SDS011;37283;49.760;8.648;2023-02-01T02:42:50;5.15;;;3.78;;
51216;SDS011;37283;49.760;8.648;2023-02-01T02:45:54;8.45;;;4.22;;
51216;SDS011;37283;49.760;8.648;2023-02-01T02:54:32;9.57;;;4.32;;
51216;SDS011;37283;49.760;8.648;2023-02-01T02:57:25;7.85;;;4.40;;
51216;SDS011;37283;49.760;8.648;2023-02-01T03:00:14;8.75;;;4.40;;
51216;SDS011;37283;49.760;8.648;2023-02-01T03:03:02;7.63;;;4.50;;
51216;SDS011;37283;49.760;8.648;2023-02-01T03:05:48;7.25;;;4.70;;
51216;SDS011;37283;49.760;8.648;2023-02-01T03:10:51;12.18;;;4.60;;
51216;SDS011;37283;49.760;8.648;2023-02-01T03:18:57;9.88;;;4.82;;
51216;SDS011;37283;49.760;8.648;2023-02-01T03:21:34;9.02;;;5.30;;
51216;SDS011;37283;49.760;8.648;2023-02-01T03:24:05;7.38;;;5.15;;
51216;SDS011;37283;49.760;8.648;2023-02-01T03:26:35;8.23;;;5.00;;
51216;SDS011;37283;49.760;8.648;2023-02-01T03:29:21;8.63;;;5.45;;
51216;SDS011;37283;49.760;8.648;2023-02-01T03:31:51;7.43;;;5.63;;
51216;SDS011;37283;49.760;8.648;2023-02-01T03:34:18;10.93;;;5.63;;
51216;SDS011;37283;49.760;8.648;2023-02-01T03:39:21;9.90;;;5.97;;
51216;SDS011;37283;49.760;8.648;2023-02-01T03:41:53;9.60;;;6.15;;
51216;SDS011;37283;49.760;8.648;2023-02-01T03:44:32;10.55;;;5.90;;
51216;SDS011;37283;49.760;8.648;2023-02-01T03:47:03;14.25;;;6.20;;
51216;SDS011;37283;49.760;8.648;2023-02-01T03:52:06;10.30;;;6.75;;
51216;SDS011;37283;49.760;8.648;2023-02-01T03:54:35;14.00;;;7.30;;
51216;SDS011;37283;49.760;8.648;2023-02-01T03:57:04;15.10;;;8.35;;
51216;SDS011;37283;49.760;8.648;2023-02-01T03:59:33;11.70;;;7.32;;
51216;SDS011;37283;49.760;8.648;2023-02-01T04:02:00;11.85;;;6.93;;
51216;SDS011;37283;49.760;8.648;2023-02-01T04:04:27;11.75;;;7.10;;
51216;SDS011;37283;49.760;8.648;2023-02-01T04:06:54;12.48;;;7.47;;
51216;SDS011;37283;49.760;8.648;2023-02-01T04:09:21;11.68;;;6.47;;
51216;SDS011;37283;49.760;8.648;2023-02-01T04:11:47;12.95;;;6.57;;
51216;SDS011;37283;49.760;8.648;2023-02-01T04:14:14;9.43;;;6.50;;
51216;SDS011;37283;49.760;8.648;2023-02-01T04:16:40;12.95;;;6.60;;
51216;SDS011;37283;49.760;8.648;2023-02-01T04:19:07;11.30;;;6.55;;
51216;SDS011;37283;49.760;8.648;2023-02-01T04:21:34;12.05;;;6.78;;
51216;SDS011;37283;49.760;8.648;2023-02-01T04:24:00;9.70;;;6.57;;
51216;SDS011;37283;49.760;8.648;2023-02-01T04:26:26;13.05;;;7.28;;
51216;SDS011;37283;49.760;8.648;2023-02-01T04:28:53;14.18;;;7.10;;
51216;SDS011;37283;49.760;8.648;2023-02-01T04:31:19;10.27;;;6.68;;
51216;SDS011;37283;49.760;8.648;2023-02-01T04:33:52;9.95;;;5.78;;
51216;SDS011;37283;49.760;8.648;2023-02-01T04:36:19;13.07;;;5.85;;
51216;SDS011;37283;49.760;8.648;2023-02-01T04:38:49;11.43;;;5.25;;
51216;SDS011;37283;49.760;8.648;2023-02-01T04:41:17;11.43;;;5.38;;
51216;SDS011;37283;49.760;8.648;2023-02-01T04:43:46;10.57;;;5.88;;
51216;SDS011;37283;49.760;8.648;2023-02-01T04:46:12;11.70;;;5.85;;
51216;SDS011;37283;49.760;8.648;2023-02-01T04:48:39;10.07;;;5.32;;
51216;SDS011;37283;49.760;8.648;2023-02-01T04:51:06;9.73;;;5.30;;
51216;SDS011;37283;49.760;8.648;2023-02-01T04:53:32;11.55;;;5.45;;
51216;SDS011;37283;49.760;8.648;2023-02-01T04:55:59;12.40;;;4.80;;
51216;SDS011;37283;49.760;8.648;2023-02-01T04:58:26;8.63;;;5.00;;
51216;SDS011;37283;49.760;8.648;2023-02-01T05:00:52;9.90;;;4.55;;
51216;SDS011;37283;49.760;8.648;2023-02-01T05:03:19;6.93;;;3.95;;
51216;SDS011;37283;49.760;8.648;2023-02-01T05:05:47;9.30;;;4.45;;
51216;SDS011;37283;49.760;8.648;2023-02-01T05:08:14;6.72;;;4.03;;
51216;SDS011;37283;49.760;8.648;2023-02-01T05:10:41;9.52;;;4.28;;
51216;SDS011;37283;49.760;8.648;2023-02-01T05:13:08;8.85;;;4.80;;
51216;SDS011;37283;49.760;8.648;2023-02-01T05:15:54;9.38;;;4.85;;
51216;SDS011;37283;49.760;8.648;2023-02-01T05:18:20;9.75;;;5.10;;
51216;SDS011;37283;49.760;8.648;2023-02-01T05:20:47;10.95;;;4.80;;
51216;SDS011;37283;49.760;8.648;2023-02-01T05:23:13;6.88;;;4.30;;
51216;SDS011;37283;49.760;8.648;2023-02-01T05:25:40;11.82;;;4.90;;
51216;SDS011;37283;49.760;8.648;2023-02-01T05:28:06;12.38;;;4.88;;
51216;SDS011;37283;49.760;8.648;2023-02-01T05:30:32;8.98;;;4.97;;
51216;SDS011;37283;49.760;8.648;2023-02-01T05:33:01;9.30;;;3.70;;
51216;SDS011;37283;49.760;8.648;2023-02-01T05:35:28;8.80;;;3.65;;
51216;SDS011;37283;49.760;8.648;2023-02-01T05:37:55;15.25;;;4.47;;
51216;SDS011;37283;49.760;8.648;2023-02-01T05:40:22;10.90;;;4.20;;
51216;SDS011;37283;49.760;8.648;2023-02-01T05:42:49;6.53;;;2.70;;
51216;SDS011;37283;49.760;8.648;2023-02-01T05:45:15;5.95;;;2.60;;
51216;SDS011;37283;49.760;8.648;2023-02-01T05:47:42;8.10;;;2.28;;
51216;SDS011;37283;49.760;8.648;2023-02-01T05:50:08;9.82;;;2.33;;
51216;SDS011;37283;49.760;8.648;2023-02-01T05:52:35;7.75;;;2.05;;
51216;SDS011;37283;49.760;8.648;2023-02-01T05:55:01;7.43;;;2.20;;
51216;SDS011;37283;49.760;8.648;2023-02-01T05:57:28;8.70;;;2.35;;
51216;SDS011;37283;49.760;8.648;2023-02-01T05:59:54;5.68;;;1.70;;
51216;SDS011;37283;49.760;8.648;2023-02-01T06:02:21;4.95;;;1.83;;
51216;SDS011;37283;49.760;8.648;2023-02-01T06:04:50;6.45;;;2.60;;
51216;SDS011;37283;49.760;8.648;2023-02-01T06:07:17;6.63;;;2.15;;
51216;SDS011;37283;49.760;8.648;2023-02-01T06:09:43;4.97;;;2.33;;
51216;SDS011;37283;49.760;8.648;2023-02-01T06:12:10;4.35;;;2.15;;
51216;SDS011;37283;49.760;8.648;2023-02-01T06:14:36;5.68;;;2.30;;
51216;SDS011;37283;49.760;8.648;2023-02-01T06:17:03;7.18;;;3.00;;
51216;SDS011;37283;49.760;8.648;2023-02-01T06:19:29;6.95;;;2.75;;
51216;SDS011;37283;49.760;8.648;2023-02-01T06:21:56;5.78;;;2.35;;
51216;SDS011;37283;49.760;8.648;2023-02-01T06:24:22;8.13;;;3.10;;
51216;SDS011;37283;49.760;8.648;2023-02-01T06:26:49;6.50;;;2.65;;
51216;SDS011;37283;49.760;8.648;2023-02-01T06:29:15;4.45;;;2.50;;
51216;SDS011;37283;49.760;8.648;2023-02-01T06:31:42;5.47;;;2.60;;
51216;SDS011;37283;49.760;8.648;2023-02-01T06:34:08;7.45;;;3.00;;
51216;SDS011;37283;49.760;8.648;2023-02-01T06:36:35;8.25;;;3.47;;
51216;SDS011;37283;49.760;8.648;2023-02-01T06:39:02;8.48;;;3.90;;
51216;SDS011;37283;49.760;8.648;2023-02-01T06:41:28;8.65;;;3.97;;
51216;SDS011;37283;49.760;8.648;2023-02-01T06:43:55;8.65;;;4.35;;
51216;SDS011;37283;49.760;8.648;2023-02-01T06:46:21;9.73;;;4.55;;
51216;SDS011;37283;49.760;8.648;2023-02-01T06:48:48;11.23;;;4.97;;
51216;SDS011;37283;49.760;8.648;2023-02-01T06:51:26;11.30;;;4.85;;
51216;SDS011;37283;49.760;8.648;2023-02-01T06:53:54;11.02;;;5.80;;
51216;SDS011;37283;49.760;8.648;2023-02-01T06:56:20;12.93;;;6.40;;
51216;SDS011;37283;49.760;8.648;2023-02-01T06:58:47;9.25;;;5.25;;
51216;SDS011;37283;49.760;8.648;2023-02-01T07:01:14;12.73;;;6.57;;
51216;SDS011;37283;49.760;8.648;2023-02-01T07:03:40;13.65;;;7.60;;
51216;SDS011;37283;49.760;8.648;2023-02-01T07:06:08;18.67;;;7.10;;
51216;SDS011;37283;49.760;8.648;2023-02-01T07:08:35;13.30;;;8.00;;
51216;SDS011;37283;49.760;8.648;2023-02-01T07:11:03;16.23;;;7.60;;
51216;SDS011;37283;49.760;8.648;2023-02-01T07:13:31;15.32;;;7.10;;
51216;SDS011;37283;49.760;8.648;2023-02-01T07:15:58;14.88;;;7.25;;
51216;SDS011;37283;49.760;8.648;2023-02-01T07:18:26;12.80;;;6.13;;
51216;SDS011;37283;49.760;8.648;2023-02-01T07:20:54;15.50;;;6.10;;
51216;SDS011;37283;49.760;8.648;2023-02-01T07:23:21;12.68;;;6.22;;
51216;SDS011;37283;49.760;8.648;2023-02-01T07:25:47;13.65;;;6.05;;
51216;SDS011;37283;49.760;8.648;2023-02-01T07:28:14;14.32;;;6.40;;
51216;SDS011;37283;49.760;8.648;2023-02-01T07:30:40;13.60;;;6.20;;
51216;SDS011;37283;49.760;8.648;2023-02-01T07:33:07;15.85;;;6.25;;
51216;SDS011;37283;49.760;8.648;2023-02-01T07:35:34;13.80;;;5.88;;
51216;SDS011;37283;49.760;8.648;2023-02-01T07:38:00;11.40;;;5.57;;
51216;SDS011;37283;49.760;8.648;2023-02-01T07:40:27;11.00;;;5.28;;
51216;SDS011;37283;49.760;8.648;2023-02-01T07:42:55;12.75;;;5.03;;
51216;SDS011;37283;49.760;8.648;2023-02-01T07:45:21;13.45;;;4.28;;
51216;SDS011;37283;49.760;8.648;2023-02-01T07:47:48;12.50;;;4.03;;
51216;SDS011;37283;49.760;8.648;2023-02-01T07:50:15;12.25;;;4.10;;
51216;SDS011;37283;49.760;8.648;2023-02-01T07:52:41;12.95;;;4.10;;
51216;SDS011;37283;49.760;8.648;2023-02-01T07:55:08;9.65;;;4.00;;
51216;SDS011;37283;49.760;8.648;2023-02-01T07:57:35;13.13;;;3.95;;
51216;SDS011;37283;49.760;8.648;2023-02-01T08:00:02;12.13;;;4.30;;
51216;SDS011;37283;49.760;8.648;2023-02-01T08:02:49;14.88;;;4.20;;
51216;SDS011;37283;49.760;8.648;2023-02-01T08:05:15;13.98;;;3.75;;
51216;SDS011;37283;49.760;8.648;2023-02-01T08:07:42;13.18;;;3.70;;
51216;SDS011;37283;49.760;8.648;2023-02-01T08:10:08;13.88;;;3.63;;
51216;SDS011;37283;49.760;8.648;2023-02-01T08:12:37;10.52;;;3.40;;
51216;SDS011;37283;49.760;8.648;2023-02-01T08:15:04;11.88;;;3.25;;
51216;SDS011;37283;49.760;8.648;2023-02-01T08:17:31;12.45;;;3.33;;
51216;SDS011;37283;49.760;8.648;2023-02-01T08:19:57;12.80;;;2.88;;
51216;SDS011;37283;49.760;8.648;2023-02-01T08:22:24;11.15;;;3.08;;
51216;SDS011;37283;49.760;8.648;2023-02-01T08:24:50;12.63;;;3.67;;
51216;SDS011;37283;49.760;8.648;2023-02-01T08:27:17;11.23;;;3.35;;
51216;SDS011;37283;49.760;8.648;2023-02-01T08:29:44;9.30;;;3.05;;
51216;SDS011;37283;49.760;8.648;2023-02-01T08:32:10;12.70;;;3.28;;
51216;SDS011;37283;49.760;8.648;2023-02-01T08:34:37;14.70;;;4.00;;
51216;SDS011;37283;49.760;8.648;2023-02-01T08:37:03;14.10;;;3.83;;
51216;SDS011;37283;49.760;8.648;2023-02-01T08:39:30;14.05;;;3.03;;
51216;SDS011;37283;49.760;8.648;2023-02-01T08:41:56;15.85;;;4.15;;
51216;SDS011;37283;49.760;8.648;2023-02-01T08:44:42;15.40;;;3.60;;
51216;SDS011;37283;49.760;8.648;2023-02-01T08:47:08;12.45;;;3.50;;
51216;SDS011;37283;49.760;8.648;2023-02-01T08:49:34;12.90;;;4.03;;
51216;SDS011;37283;49.760;8.648;2023-02-01T08:52:01;13.57;;;2.95;;
51216;SDS011;37283;49.760;8.648;2023-02-01T08:54:35;18.42;;;4.45;;
51216;SDS011;37283;49.760;8.648;2023-02-01T08:57:02;10.05;;;3.30;;
51216;SDS011;37283;49.760;8.648;2023-02-01T08:59:30;14.10;;;3.88;;
51216;SDS011;37283;49.760;8.648;2023-02-01T09:01:56;11.63;;;3.70;;
51216;SDS011;37283;49.760;8.648;2023-02-01T09:04:23;16.77;;;4.28;;
51216;SDS011;37283;49.760;8.648;2023-02-01T09:06:49;12.55;;;3.55;;
51216;SDS011;37283;49.760;8.648;2023-02-01T09:09:16;12.20;;;3.90;;
51216;SDS011;37283;49.760;8.648;2023-02-01T09:11:42;9.63;;;3.95;;
51216;SDS011;37283;49.760;8.648;2023-02-01T09:14:09;17.80;;;4.55;;
51216;SDS011;37283;49.760;8.648;2023-02-01T09:16:35;15.40;;;4.25;;
51216;SDS011;37283;49.760;8.648;2023-02-01T09:19:02;18.00;;;4.05;;
51216;SDS011;37283;49.760;8.648;2023-02-01T09:21:48;14.75;;;4.13;;
51216;SDS011;37283;49.760;8.648;2023-02-01T09:24:15;17.05;;;4.40;;
51216;SDS011;37283;49.760;8.648;2023-02-01T09:26:41;13.50;;;4.32;;
51216;SDS011;37283;49.760;8.648;2023-02-01T09:29:08;11.23;;;3.60;;
51216;SDS011;37283;49.760;8.648;2023-02-01T09:31:38;16.23;;;4.10;;
51216;SDS011;37283;49.760;8.648;2023-02-01T09:34:09;10.68;;;4.05;;
51216;SDS011;37283;49.760;8.648;2023-02-01T09:36:35;16.02;;;3.67;;
51216;SDS011;37283;49.760;8.648;2023-02-01T09:39:02;13.43;;;3.25;;
51216;SDS011;37283;49.760;8.648;2023-02-01T09:41:32;14.02;;;3.88;;
51216;SDS011;37283;49.760;8.648;2023-02-01T09:46:42;13.82;;;4.13;;
51216;SDS011;37283;49.760;8.648;2023-02-01T09:49:13;15.38;;;3.92;;
51216;SDS011;37283;49.760;8.648;2023-02-01T09:51:44;16.90;;;4.20;;
51216;SDS011;37283;49.760;8.648;2023-02-01T09:54:13;16.20;;;4.43;;
51216;SDS011;37283;49.760;8.648;2023-02-01T09:56:49;17.73;;;4.72;;
51216;SDS011;37283;49.760;8.648;2023-02-01T10:01:52;15.82;;;4.40;;
51216;SDS011;37283;49.760;8.648;2023-02-01T10:04:19;15.98;;;4.50;;
51216;SDS011;37283;49.760;8.648;2023-02-01T10:06:49;20.63;;;4.55;;
51216;SDS011;37283;49.760;8.648;2023-02-01T10:24:22;14.63;;;3.75;;
51216;SDS011;37283;49.760;8.648;2023-02-01T10:27:08;16.10;;;3.35;;
51216;SDS011;37283;49.760;8.648;2023-02-01T10:29:43;14.80;;;3.75;;
51216;SDS011;37283;49.760;8.648;2023-02-01T10:32:21;16.30;;;4.13;;
51216;SDS011;37283;49.760;8.648;2023-02-01T10:34:52;10.45;;;3.40;;
51216;SDS011;37283;49.760;8.648;2023-02-01T10:37:23;22.92;;;4.35;;
51216;SDS011;37283;49.760;8.648;2023-02-01T10:39:54;15.38;;;3.40;;
51216;SDS011;37283;49.760;8.648;2023-02-01T10:42:24;16.00;;;3.78;;
51216;SDS011;37283;49.760;8.648;2023-02-01T10:44:52;10.82;;;3.33;;
51216;SDS011;37283;49.760;8.648;2023-02-01T10:47:20;11.88;;;3.28;;
51216;SDS011;37283;49.760;8.648;2023-02-01T10:49:55;18.55;;;4.13;;
51216;SDS011;37283;49.760;8.648;2023-02-01T10:58:15;12.68;;;2.90;;
51216;SDS011;37283;49.760;8.648;2023-02-01T11:00:46;14.27;;;3.22;;
51216;SDS011;37283;49.760;8.648;2023-02-01T11:03:21;12.00;;;2.85;;
51216;SDS011;37283;49.760;8.648;2023-02-01T11:06:08;12.40;;;3.08;;
51216;SDS011;37283;49.760;8.648;2023-02-01T11:08:51;13.98;;;2.92;;
51216;SDS011;37283;49.760;8.648;2023-02-01T11:11:19;13.98;;;3.30;;
51216;SDS011;37283;49.760;8.648;2023-02-01T11:13:53;16.08;;;2.80;;
51216;SDS011;37283;49.760;8.648;2023-02-01T11:16:32;10.15;;;2.70;;
51216;SDS011;37283;49.760;8.648;2023-02-01T11:19:01;14.50;;;3.10;;
51216;SDS011;37283;49.760;8.648;2023-02-01T11:21:27;15.68;;;2.90;;
51216;SDS011;37283;49.760;8.648;2023-02-01T11:23:54;13.35;;;2.60;;
51216;SDS011;37283;49.760;8.648;2023-02-01T11:26:24;17.77;;;3.45;;
51216;SDS011;37283;49.760;8.648;2023-02-01T11:29:04;12.00;;;2.75;;
51216;SDS011;37283;49.760;8.648;2023-02-01T11:31:34;9.93;;;2.80;;
51216;SDS011;37283;49.760;8.648;2023-02-01T11:34:08;11.18;;;2.70;;
51216;SDS011;37283;49.760;8.648;2023-02-01T11:36:38;9.32;;;2.35;;
51216;SDS011;37283;49.760;8.648;2023-02-01T11:41:41;13.15;;;2.85;;
51216;SDS011;37283;49.760;8.648;2023-02-01T11:44:50;12.88;;;2.90;;
51216;SDS011;37283;49.760;8.648;2023-02-01T11:49:46;11.43;;;2.33;;
51216;SDS011;37283;49.760;8.648;2023-02-01T11:58:02;15.25;;;2.92;;
51216;SDS011;37283;49.760;8.648;2023-02-01T12:06:18;12.50;;;2.88;;
51216;SDS011;37283;49.760;8.648;2023-02-01T12:16:55;13.85;;;3.15;;
51216;SDS011;37283;49.760;8.648;2023-02-01T12:25:33;14.50;;;2.83;;
51216;SDS011;37283;49.760;8.648;2023-02-01T12:41:59;12.40;;;2.90;;
51216;SDS011;37283;49.760;8.648;2023-02-01T12:50:04;13.60;;;3.23;;
51216;SDS011;37283;49.760;8.648;2023-02-01T12:52:44;12.55;;;3.35;;
51216;SDS011;37283;49.760;8.648;2023-02-01T12:58:15;14.93;;;3.53;;
51216;SDS011;37283;49.760;8.648;2023-02-01T13:00:55;11.65;;;3.17;;
51216;SDS011;37283;49.760;8.648;2023-02-01T13:06:24;12.70;;;2.88;;
51216;SDS011;37283;49.760;8.648;2023-02-01T13:11:43;14.05;;;2.60;;
51216;SDS011;37283;49.760;8.648;2023-02-01T13:14:17;11.63;;;2.80;;
51216;SDS011;37283;49.760;8.648;2023-02-01T13:16:51;21.77;;;3.43;;
51216;SDS011;37283;49.760;8.648;2023-02-01T13:21:59;14.98;;;3.35;;
51216;SDS011;37283;49.760;8.648;2023-02-01T13:24:36;12.38;;;2.90;;
51216;SDS011;37283;49.760;8.648;2023-02-01T13:27:05;14.77;;;3.22;;
51216;SDS011;37283;49.760;8.648;2023-02-01T13:29:32;14.45;;;2.75;;
51216;SDS011;37283;49.760;8.648;2023-02-01T13:32:15;15.02;;;3.20;;
51216;SDS011;37283;49.760;8.648;2023-02-01T13:43:44;12.00;;;3.10;;
51216;SDS011;37283;49.760;8.648;2023-02-01T13:46:14;12.30;;;2.95;;
51216;SDS011;37283;49.760;8.648;2023-02-01T13:48:46;11.63;;;2.53;;
51216;SDS011;37283;49.760;8.648;2023-02-01T13:51:13;15.23;;;3.60;;
51216;SDS011;37283;49.760;8.648;2023-02-01T13:53:45;15.25;;;3.30;;
51216;SDS011;37283;49.760;8.648;2023-02-01T13:56:19;14.65;;;2.78;;
51216;SDS011;37283;49.760;8.648;2023-02-01T13:58:46;14.68;;;3.05;;
51216;SDS011;37283;49.760;8.648;2023-02-01T14:03:50;15.07;;;3.47;;
51216;SDS011;37283;49.760;8.648;2023-02-01T14:11:43;13.80;;;3.28;;
51216;SDS011;37283;49.760;8.648;2023-02-01T14:21:51;19.27;;;3.58;;
51216;SDS011;37283;49.760;8.648;2023-02-01T14:24:29;13.65;;;2.78;;
51216;SDS011;37283;49.760;8.648;2023-02-01T14:26:58;14.15;;;3.40;;
51216;SDS011;37283;49.760;8.648;2023-02-01T14:34:38;17.20;;;4.03;;
51216;SDS011;37283;49.760;8.648;2023-02-01T14:37:11;12.70;;;2.85;;
51216;SDS011;37283;49.760;8.648;2023-02-01T14:47:53;17.25;;;4.43;;
51216;SDS011;37283;49.760;8.648;2023-02-01T14:55:42;11.43;;;3.20;;
51216;SDS011;37283;49.760;8.648;2023-02-01T15:01:15;11.43;;;2.63;;
51216;SDS011;37283;49.760;8.648;2023-02-01T15:03:52;13.73;;;2.75;;
51216;SDS011;37283;49.760;8.648;2023-02-01T15:06:39;14.68;;;2.80;;
51216;SDS011;37283;49.760;8.648;2023-02-01T15:09:10;10.20;;;2.40;;
51216;SDS011;37283;49.760;8.648;2023-02-01T15:11:59;13.23;;;2.95;;
51216;SDS011;37283;49.760;8.648;2023-02-01T15:14:35;11.50;;;2.72;;
51216;SDS011;37283;49.760;8.648;2023-02-01T15:17:15;12.40;;;2.80;;
51216;SDS011;37283;49.760;8.648;2023-02-01T15:19:58;12.40;;;3.33;;
51216;SDS011;37283;49.760;8.648;2023-02-01T15:22:26;13.15;;;2.97;;
51216;SDS011;37283;49.760;8.648;2023-02-01T15:24:55;7.75;;;2.55;;
51216;SDS011;37283;49.760;8.648;2023-02-01T15:27:23;10.00;;;2.40;;
51216;SDS011;37283;49.760;8.648;2023-02-01T15:29:50;10.85;;;2.58;;
51216;SDS011;37283;49.760;8.648;2023-02-01T15:35:02;14.43;;;3.53;;
51216;SDS011;37283;49.760;8.648;2023-02-01T15:37:29;11.77;;;2.75;;
51216;SDS011;37283;49.760;8.648;2023-02-01T15:42:36;11.30;;;2.45;;
51216;SDS011;37283;49.760;8.648;2023-02-01T15:45:04;14.75;;;3.42;;
51216;SDS011;37283;49.760;8.648;2023-02-01T15:47:46;11.17;;;2.70;;
51216;SDS011;37283;49.760;8.648;2023-02-01T15:50:16;10.73;;;2.92;;
51216;SDS011;37283;49.760;8.648;2023-02-01T15:52:50;13.18;;;3.65;;
51216;SDS011;37283;49.760;8.648;2023-02-01T15:57:52;12.80;;;2.50;;
51216;SDS011;37283;49.760;8.648;2023-02-01T16:08:01;12.45;;;2.88;;
51216;SDS011;37283;49.760;8.648;2023-02-01T16:10:38;16.02;;;3.20;;
51216;SDS011;37283;49.760;8.648;2023-02-01T16:13:06;11.40;;;2.88;;
51216;SDS011;37283;49.760;8.648;2023-02-01T16:15:33;13.57;;;3.03;;
51216;SDS011;37283;49.760;8.648;2023-02-01T16:17:59;16.02;;;3.25;;
51216;SDS011;37283;49.760;8.648;2023-02-01T16:20:26;11.90;;;3.00;;
51216;SDS011;37283;49.760;8.648;2023-02-01T16:22:52;12.77;;;2.83;;
51216;SDS011;37283;49.760;8.648;2023-02-01T16:25:19;13.13;;;3.03;;
51216;SDS011;37283;49.760;8.648;2023-02-01T16:27:45;16.02;;;3.47;;
51216;SDS011;37283;49.760;8.648;2023-02-01T16:30:12;13.55;;;3.22;;
51216;SDS011;37283;49.760;8.648;2023-02-01T16:32:38;11.48;;;2.75;;
51216;SDS011;37283;49.760;8.648;2023-02-01T16:35:26;18.25;;;3.63;;
51216;SDS011;37283;49.760;8.648;2023-02-01T16:37:53;12.48;;;2.90;;
51216;SDS011;37283;49.760;8.648;2023-02-01T16:40:21;14.02;;;3.10;;
51216;SDS011;37283;49.760;8.648;2023-02-01T16:43:01;12.82;;;2.83;;
51216;SDS011;37283;49.760;8.648;2023-02-01T16:54:47;17.25;;;3.95;;
51216;SDS011;37283;49.760;8.648;2023-02-01T17:06:37;12.38;;;3.15;;
51216;SDS011;37283;49.760;8.648;2023-02-01T17:09:05;15.32;;;3.53;;
51216;SDS011;37283;49.760;8.648;2023-02-01T17:11:32;13.38;;;2.80;;
51216;SDS011;37283;49.760;8.648;2023-02-01T17:14:01;13.32;;;3.25;;
51216;SDS011;37283;49.760;8.648;2023-02-01T17:16:39;15.55;;;4.78;;
51216;SDS011;37283;49.760;8.648;2023-02-01T17:19:09;18.25;;;4.28;;
51216;SDS011;37283;49.760;8.648;2023-02-01T17:21:41;12.05;;;3.22;;
51216;SDS011;37283;49.760;8.648;2023-02-01T17:24:11;13.50;;;3.60;;
51216;SDS011;37283;49.760;8.648;2023-02-01T17:26:40;13.55;;;3.47;;
51216;SDS011;37283;49.760;8.648;2023-02-01T17:29:07;12.48;;;3.25;;
51216;SDS011;37283;49.760;8.648;2023-02-01T17:31:50;15.23;;;3.50;;
51216;SDS011;37283;49.760;8.648;2023-02-01T17:34:18;17.77;;;5.50;;
51216;SDS011;37283;49.760;8.648;2023-02-01T17:36:46;15.45;;;3.83;;
51216;SDS011;37283;49.760;8.648;2023-02-01T17:39:13;16.80;;;4.68;;
51216;SDS011;37283;49.760;8.648;2023-02-01T17:42:01;15.38;;;2.90;;
51216;SDS011;37283;49.760;8.648;2023-02-01T17:44:28;16.00;;;3.78;;
51216;SDS011;37283;49.760;8.648;2023-02-01T17:46:55;14.05;;;3.33;;
51216;SDS011;37283;49.760;8.648;2023-02-01T17:49:22;17.08;;;7.10;;
51216;SDS011;37283;49.760;8.648;2023-02-01T17:51:49;18.80;;;5.95;;
51216;SDS011;37283;49.760;8.648;2023-02-01T17:54:16;16.33;;;3.60;;
51216;SDS011;37283;49.760;8.648;2023-02-01T17:56:45;11.35;;;3.20;;
51216;SDS011;37283;49.760;8.648;2023-02-01T17:59:14;15.57;;;3.70;;
51216;SDS011;37283;49.760;8.648;2023-02-01T18:01:40;13.75;;;3.63;;
51216;SDS011;37283;49.760;8.648;2023-02-01T18:04:11;16.83;;;3.95;;
51216;SDS011;37283;49.760;8.648;2023-02-01T18:06:43;12.38;;;2.88;;
51216;SDS011;37283;49.760;8.648;2023-02-01T18:09:10;11.45;;;3.60;;
51216;SDS011;37283;49.760;8.648;2023-02-01T18:11:37;17.00;;;3.50;;
51216;SDS011;37283;49.760;8.648;2023-02-01T18:14:03;14.85;;;3.45;;
51216;SDS011;37283;49.760;8.648;2023-02-01T18:16:31;14.77;;;3.55;;
51216;SDS011;37283;49.760;8.648;2023-02-01T18:18:59;9.98;;;2.85;;
51216;SDS011;37283;49.760;8.648;2023-02-01T18:21:37;18.43;;;4.03;;
51216;SDS011;37283;49.760;8.648;2023-02-01T18:24:13;11.35;;;3.42;;
51216;SDS011;37283;49.760;8.648;2023-02-01T18:26:41;15.77;;;3.30;;